sensor_id;sensor_type;location;lat;lon;timestamp;pressure;altitude;pressure_sealevel;temperature;humidity
3096;BME280;1558;42.700;23.360;2023-04-23T00:02:06;95283.16;;;8.89;100.00
3096;BME280;1558;42.700;23.360;2023-04-23T00:04:36;95278.59;;;8.81;100.00
3096;BME280;1558;42.700;23.360;2023-04-23T00:07:06;95278.56;;;8.90;100.00
3096;BME280;1558;42.700;23.360;2023-04-23T00:09:35;95224.09;;;8.46;100.00
3096;BME280;1558;42.700;23.360;2023-04-23T00:12:04;95276.41;;;8.74;100.00
3096;BME280;1558;42.700;23.360;2023-04-23T00:14:33;95280.66;;;8.75;100.00
3096;BME280;1558;42.700;23.360;2023-04-23T00:17:02;95287.47;;;8.73;100.00
3096;BME280;1558;42.700;23.360;2023-04-23T00:19:33;95279.28;;;8.69;100.00
3096;BME280;1558;42.700;23.360;2023-04-23T00:22:01;95289.38;;;8.64;100.00
3096;BME280;1558;42.700;23.360;2023-04-23T00:24:29;95284.19;;;8.67;100.00
3096;BME280;1558;42.700;23.360;2023-04-23T00:26:57;95287.81;;;8.63;100.00
3096;BME280;1558;42.700;23.360;2023-04-23T00:29:25;95293.84;;;8.60;100.00
3096;BME280;1558;42.700;23.360;2023-04-23T00:31:53;95293.38;;;8.58;100.00
3096;BME280;1558;42.700;23.360;2023-04-23T00:34:21;95284.66;;;8.61;100.00
3096;BME280;1558;42.700;23.360;2023-04-23T00:36:51;95215.75;;;8.13;100.00
3096;BME280;1558;42.700;23.360;2023-04-23T00:39:19;95278.66;;;8.55;100.00
3096;BME280;1558;42.700;23.360;2023-04-23T00:41:47;95279.44;;;8.47;100.00
3096;BME280;1558;42.700;23.360;2023-04-23T00:44:15;95281.50;;;8.42;100.00
3096;BME280;1558;42.700;23.360;2023-04-23T00:46:44;95278.22;;;8.36;100.00
3096;BME280;1558;42.700;23.360;2023-04-23T00:49:13;95278.84;;;8.33;100.00
3096;BME280;1558;42.700;23.360;2023-04-23T00:51:42;95276.63;;;8.35;100.00
3096;BME280;1558;42.700;23.360;2023-04-23T00:54:11;95255.88;;;8.18;100.00
3096;BME280;1558;42.700;23.360;2023-04-23T00:56:40;95281.66;;;8.19;100.00
3096;BME280;1558;42.700;23.360;2023-04-23T00:59:08;95289.53;;;7.99;100.00
3096;BME280;1558;42.700;23.360;2023-04-23T01:01:36;95287.78;;;7.86;100.00
3096;BME280;1558;42.700;23.360;2023-04-23T01:04:04;95268.34;;;7.72;100.00
3096;BME280;1558;42.700;23.360;2023-04-23T01:06:33;95285.88;;;7.78;100.00
3096;BME280;1558;42.700;23.360;2023-04-23T01:09:01;95294.41;;;7.80;100.00
3096;BME280;1558;42.700;23.360;2023-04-23T01:11:33;95257.28;;;7.65;100.00
3096;BME280;1558;42.700;23.360;2023-04-23T01:14:02;95285.88;;;7.78;100.00
3096;BME280;1558;42.700;23.360;2023-04-23T01:16:30;95283.84;;;7.75;100.00
3096;BME280;1558;42.700;23.360;2023-04-23T01:18:58;95284.28;;;7.68;100.00
3096;BME280;1558;42.700;23.360;2023-04-23T01:21:28;95266.72;;;7.53;100.00
3096;BME280;1558;42.700;23.360;2023-04-23T01:23:58;95276.06;;;7.65;100.00
3096;BME280;1558;42.700;23.360;2023-04-23T01:26:26;95281.13;;;7.58;100.00
3096;BME280;1558;42.700;23.360;2023-04-23T01:28:55;95276.38;;;7.55;100.00
3096;BME280;1558;42.700;23.360;2023-04-23T01:31:23;95253.75;;;7.38;100.00
3096;BME280;1558;42.700;23.360;2023-04-23T01:33:52;95278.56;;;7.53;100.00
3096;BME280;1558;42.700;23.360;2023-04-23T01:36:21;95283.94;;;7.44;100.00
3096;BME280;1558;42.700;23.360;2023-04-23T01:38:50;95262.88;;;7.29;100.00
3096;BME280;1558;42.700;23.360;2023-04-23T01:41:20;95287.38;;;7.44;100.00
3096;BME280;1558;42.700;23.360;2023-04-23T01:43:48;95290.06;;;7.36;100.00
3096;BME280;1558;42.700;23.360;2023-04-23T01:46:16;95270.59;;;7.22;100.00
3096;BME280;1558;42.700;23.360;2023-04-23T01:48:44;95294.75;;;7.30;100.00
3096;BME280;1558;42.700;23.360;2023-04-23T01:51:12;95295.22;;;7.32;100.00
3096;BME280;1558;42.700;23.360;2023-04-23T01:53:41;95299.50;;;7.33;100.00
3096;BME280;1558;42.700;23.360;2023-04-23T01:56:09;95301.41;;;7.33;100.00
3096;BME280;1558;42.700;23.360;2023-04-23T01:58:38;95302.31;;;7.28;100.00
3096;BME280;1558;42.700;23.360;2023-04-23T02:01:06;95294.41;;;7.23;100.00
3096;BME280;1558;42.700;23.360;2023-04-23T02:03:35;95293.47;;;7.19;100.00
3096;BME280;1558;42.700;23.360;2023-04-23T02:06:03;95295.88;;;7.38;100.00
3096;BME280;1558;42.700;23.360;2023-04-23T02:08:32;95298.91;;;7.45;100.00
3096;BME280;1558;42.700;23.360;2023-04-23T02:11:00;95281.81;;;7.32;100.00
3096;BME280;1558;42.700;23.360;2023-04-23T02:13:28;95293.19;;;7.29;100.00
3096;BME280;1558;42.700;23.360;2023-04-23T02:15:58;95300.72;;;7.27;100.00
3096;BME280;1558;42.700;23.360;2023-04-23T02:18:26;95299.66;;;7.28;100.00
3096;BME280;1558;42.700;23.360;2023-04-23T02:20:54;95292.22;;;7.25;100.00
3096;BME280;1558;42.700;23.360;2023-04-23T02:23:24;95301.97;;;7.21;100.00
3096;BME280;1558;42.700;23.360;2023-04-23T02:25:52;95298.50;;;7.21;100.00
3096;BME280;1558;42.700;23.360;2023-04-23T02:28:20;95244.09;;;6.81;100.00
3096;BME280;1558;42.700;23.360;2023-04-23T02:30:48;95302.91;;;7.17;100.00
3096;BME280;1558;42.700;23.360;2023-04-23T02:33:18;95308.75;;;7.19;100.00
3096;BME280;1558;42.700;23.360;2023-04-23T02:35:46;95300.69;;;7.10;100.00
3096;BME280;1558;42.700;23.360;2023-04-23T02:38:15;95301.78;;;7.09;100.00
3096;BME280;1558;42.700;23.360;2023-04-23T02:40:43;95310.28;;;7.03;100.00
3096;BME280;1558;42.700;23.360;2023-04-23T02:43:11;95307.91;;;7.01;100.00
3096;BME280;1558;42.700;23.360;2023-04-23T02:45:40;95308.66;;;7.02;100.00
3096;BME280;1558;42.700;23.360;2023-04-23T02:48:08;95305.34;;;6.96;100.00
3096;BME280;1558;42.700;23.360;2023-04-23T02:50:38;95305.97;;;6.93;100.00
3096;BME280;1558;42.700;23.360;2023-04-23T02:53:07;95304.38;;;6.92;100.00
3096;BME280;1558;42.700;23.360;2023-04-23T02:55:35;95291.53;;;6.80;100.00
3096;BME280;1558;42.700;23.360;2023-04-23T02:58:03;95306.78;;;7.02;100.00
3096;BME280;1558;42.700;23.360;2023-04-23T03:00:32;95304.47;;;7.09;100.00
3096;BME280;1558;42.700;23.360;2023-04-23T03:03:00;95306.47;;;7.04;100.00
3096;BME280;1558;42.700;23.360;2023-04-23T03:05:28;95310.06;;;6.99;100.00
3096;BME280;1558;42.700;23.360;2023-04-23T03:07:58;95297.09;;;6.84;100.00
3096;BME280;1558;42.700;23.360;2023-04-23T03:10:26;95299.91;;;6.79;100.00
3096;BME280;1558;42.700;23.360;2023-04-23T03:12:54;95310.00;;;6.82;100.00
3096;BME280;1558;42.700;23.360;2023-04-23T03:15:25;95321.34;;;6.79;100.00
3096;BME280;1558;42.700;23.360;2023-04-23T03:17:53;95313.97;;;6.85;100.00
3096;BME280;1558;42.700;23.360;2023-04-23T03:20:22;95298.28;;;6.78;100.00
3096;BME280;1558;42.700;23.360;2023-04-23T03:22:50;95307.47;;;6.77;100.00
3096;BME280;1558;42.700;23.360;2023-04-23T03:25:20;95323.81;;;6.75;100.00
3096;BME280;1558;42.700;23.360;2023-04-23T03:27:50;95323.34;;;6.73;100.00
3096;BME280;1558;42.700;23.360;2023-04-23T03:30:19;95329.97;;;6.76;100.00
3096;BME280;1558;42.700;23.360;2023-04-23T03:32:48;95325.59;;;6.80;100.00
3096;BME280;1558;42.700;23.360;2023-04-23T03:35:16;95332.66;;;6.76;100.00
3096;BME280;1558;42.700;23.360;2023-04-23T03:37:44;95336.47;;;6.75;100.00
3096;BME280;1558;42.700;23.360;2023-04-23T03:40:13;95329.50;;;6.74;100.00
3096;BME280;1558;42.700;23.360;2023-04-23T03:42:42;95340.22;;;6.74;100.00
3096;BME280;1558;42.700;23.360;2023-04-23T03:45:11;95323.09;;;6.61;100.00
3096;BME280;1558;42.700;23.360;2023-04-23T03:47:40;95337.22;;;6.75;100.00
3096;BME280;1558;42.700;23.360;2023-04-23T03:50:09;95320.78;;;6.68;100.00
3096;BME280;1558;42.700;23.360;2023-04-23T03:52:39;95332.53;;;6.81;100.00
3096;BME280;1558;42.700;23.360;2023-04-23T03:55:08;95309.16;;;6.73;100.00
3096;BME280;1558;42.700;23.360;2023-04-23T03:57:36;95347.69;;;6.86;100.00
3096;BME280;1558;42.700;23.360;2023-04-23T04:00:07;95337.16;;;6.89;100.00
3096;BME280;1558;42.700;23.360;2023-04-23T04:02:37;95332.34;;;6.77;100.00
3096;BME280;1558;42.700;23.360;2023-04-23T04:05:06;95249.41;;;6.42;100.00
3096;BME280;1558;42.700;23.360;2023-04-23T04:07:37;95350.81;;;7.01;100.00
3096;BME280;1558;42.700;23.360;2023-04-23T04:10:06;95328.00;;;6.90;100.00
3096;BME280;1558;42.700;23.360;2023-04-23T04:12:34;95339.44;;;7.04;100.00
3096;BME280;1558;42.700;23.360;2023-04-23T04:15:03;95348.81;;;7.15;100.00
3096;BME280;1558;42.700;23.360;2023-04-23T04:17:33;95351.38;;;7.60;100.00
3096;BME280;1558;42.700;23.360;2023-04-23T04:20:01;95356.00;;;7.85;100.00
3096;BME280;1558;42.700;23.360;2023-04-23T04:22:29;95343.81;;;8.44;100.00
3096;BME280;1558;42.700;23.360;2023-04-23T04:24:57;95351.34;;;8.84;100.00
3096;BME280;1558;42.700;23.360;2023-04-23T04:27:26;95355.91;;;9.10;100.00
3096;BME280;1558;42.700;23.360;2023-04-23T04:29:54;95351.28;;;9.65;100.00
3096;BME280;1558;42.700;23.360;2023-04-23T04:32:22;95349.34;;;10.33;100.00
3096;BME280;1558;42.700;23.360;2023-04-23T04:34:51;95340.38;;;10.82;100.00
3096;BME280;1558;42.700;23.360;2023-04-23T04:37:20;95339.19;;;11.04;100.00
3096;BME280;1558;42.700;23.360;2023-04-23T04:39:48;95331.75;;;11.33;100.00
3096;BME280;1558;42.700;23.360;2023-04-23T04:42:17;95350.94;;;11.20;100.00
3096;BME280;1558;42.700;23.360;2023-04-23T04:44:45;95349.75;;;11.41;100.00
3096;BME280;1558;42.700;23.360;2023-04-23T04:47:13;95353.66;;;11.77;100.00
3096;BME280;1558;42.700;23.360;2023-04-23T04:49:42;95357.72;;;12.31;97.07
3096;BME280;1558;42.700;23.360;2023-04-23T04:52:12;95357.38;;;12.72;92.33
3096;BME280;1558;42.700;23.360;2023-04-23T04:54:40;95366.66;;;12.99;89.90
3096;BME280;1558;42.700;23.360;2023-04-23T04:57:08;95371.19;;;12.95;85.35
3096;BME280;1558;42.700;23.360;2023-04-23T04:59:36;95368.75;;;12.78;83.67
3096;BME280;1558;42.700;23.360;2023-04-23T05:02:05;95363.78;;;12.28;84.95
3096;BME280;1558;42.700;23.360;2023-04-23T05:04:33;95369.38;;;12.59;85.15
3096;BME280;1558;42.700;23.360;2023-04-23T05:07:01;95353.38;;;12.54;83.71
3096;BME280;1558;42.700;23.360;2023-04-23T05:09:31;95369.88;;;12.01;84.54
3096;BME280;1558;42.700;23.360;2023-04-23T05:11:59;95371.56;;;11.69;87.07
3096;BME280;1558;42.700;23.360;2023-04-23T05:14:28;95373.03;;;12.15;87.38
3096;BME280;1558;42.700;23.360;2023-04-23T05:16:56;95373.97;;;13.11;83.99
3096;BME280;1558;42.700;23.360;2023-04-23T05:19:24;95370.81;;;13.09;83.02
3096;BME280;1558;42.700;23.360;2023-04-23T05:21:52;95377.22;;;12.76;81.83
3096;BME280;1558;42.700;23.360;2023-04-23T05:24:20;95372.59;;;13.17;81.39
3096;BME280;1558;42.700;23.360;2023-04-23T05:26:50;95372.16;;;13.03;80.11
3096;BME280;1558;42.700;23.360;2023-04-23T05:29:18;95376.47;;;12.91;81.29
3096;BME280;1558;42.700;23.360;2023-04-23T05:31:46;95382.28;;;12.78;81.03
3096;BME280;1558;42.700;23.360;2023-04-23T05:34:14;95370.94;;;12.60;82.51
3096;BME280;1558;42.700;23.360;2023-04-23T05:36:42;95376.09;;;13.05;83.14
3096;BME280;1558;42.700;23.360;2023-04-23T05:39:10;95366.47;;;13.20;80.75
3096;BME280;1558;42.700;23.360;2023-04-23T05:41:38;95375.88;;;13.38;80.46
3096;BME280;1558;42.700;23.360;2023-04-23T05:44:08;95367.94;;;13.45;80.75
3096;BME280;1558;42.700;23.360;2023-04-23T05:46:36;95376.50;;;13.47;79.43
3096;BME280;1558;42.700;23.360;2023-04-23T05:49:04;95359.84;;;12.77;80.19
3096;BME280;1558;42.700;23.360;2023-04-23T05:51:32;95360.16;;;11.64;86.67
3096;BME280;1558;42.700;23.360;2023-04-23T05:54:00;95379.59;;;12.14;88.85
3096;BME280;1558;42.700;23.360;2023-04-23T05:56:29;95384.84;;;12.86;85.36
3096;BME280;1558;42.700;23.360;2023-04-23T05:58:57;95368.13;;;13.52;83.55
3096;BME280;1558;42.700;23.360;2023-04-23T06:01:26;95376.00;;;13.88;79.19
3096;BME280;1558;42.700;23.360;2023-04-23T06:03:54;95377.47;;;13.70;79.85
3096;BME280;1558;42.700;23.360;2023-04-23T06:06:23;95367.00;;;13.84;78.70
3096;BME280;1558;42.700;23.360;2023-04-23T06:08:51;95377.22;;;14.06;79.21
3096;BME280;1558;42.700;23.360;2023-04-23T06:11:20;95370.97;;;14.21;78.38
3096;BME280;1558;42.700;23.360;2023-04-23T06:13:48;95374.16;;;15.12;76.32
3096;BME280;1558;42.700;23.360;2023-04-23T06:16:16;95378.88;;;14.96;75.34
3096;BME280;1558;42.700;23.360;2023-04-23T06:18:46;95372.03;;;15.02;74.75
3096;BME280;1558;42.700;23.360;2023-04-23T06:21:14;95370.44;;;15.20;75.52
3096;BME280;1558;42.700;23.360;2023-04-23T06:23:44;95370.53;;;15.66;73.95
3096;BME280;1558;42.700;23.360;2023-04-23T06:26:12;95380.06;;;16.24;72.28
3096;BME280;1558;42.700;23.360;2023-04-23T06:28:40;95364.63;;;17.47;70.61
3096;BME280;1558;42.700;23.360;2023-04-23T06:31:09;95282.78;;;16.73;66.45
3096;BME280;1558;42.700;23.360;2023-04-23T06:33:37;95377.56;;;16.61;66.29
3096;BME280;1558;42.700;23.360;2023-04-23T06:36:07;95372.28;;;16.00;68.22
3096;BME280;1558;42.700;23.360;2023-04-23T06:38:37;95351.56;;;15.92;70.11
3096;BME280;1558;42.700;23.360;2023-04-23T06:41:06;95372.97;;;16.16;68.73
3096;BME280;1558;42.700;23.360;2023-04-23T06:43:34;95372.56;;;16.40;69.55
3096;BME280;1558;42.700;23.360;2023-04-23T06:46:03;95373.00;;;16.68;68.74
3096;BME280;1558;42.700;23.360;2023-04-23T06:48:31;95352.16;;;16.83;67.37
3096;BME280;1558;42.700;23.360;2023-04-23T06:50:59;95365.31;;;16.25;67.96
3096;BME280;1558;42.700;23.360;2023-04-23T06:53:29;95374.19;;;17.01;67.79
3096;BME280;1558;42.700;23.360;2023-04-23T06:55:57;95371.53;;;16.74;66.71
3096;BME280;1558;42.700;23.360;2023-04-23T06:58:25;95326.25;;;16.66;66.88
3096;BME280;1558;42.700;23.360;2023-04-23T07:00:57;95362.47;;;16.97;66.36
3096;BME280;1558;42.700;23.360;2023-04-23T07:03:30;95358.09;;;17.22;67.71
3096;BME280;1558;42.700;23.360;2023-04-23T07:05:58;95358.22;;;18.06;65.06
3096;BME280;1558;42.700;23.360;2023-04-23T07:08:27;95359.88;;;18.17;64.37
3096;BME280;1558;42.700;23.360;2023-04-23T07:10:56;95352.34;;;18.51;62.78
3096;BME280;1558;42.700;23.360;2023-04-23T07:13:24;95367.25;;;19.36;61.09
3096;BME280;1558;42.700;23.360;2023-04-23T07:15:52;95361.34;;;18.52;60.59
3096;BME280;1558;42.700;23.360;2023-04-23T07:18:21;95355.75;;;18.99;60.51
3096;BME280;1558;42.700;23.360;2023-04-23T07:20:49;95360.84;;;19.11;59.54
3096;BME280;1558;42.700;23.360;2023-04-23T07:23:17;95362.06;;;19.21;58.95
3096;BME280;1558;42.700;23.360;2023-04-23T07:25:45;95342.88;;;19.03;60.08
3096;BME280;1558;42.700;23.360;2023-04-23T07:28:15;95350.38;;;19.24;58.05
3096;BME280;1558;42.700;23.360;2023-04-23T07:30:43;95352.78;;;18.60;59.63
3096;BME280;1558;42.700;23.360;2023-04-23T07:33:11;95347.91;;;18.94;58.09
3096;BME280;1558;42.700;23.360;2023-04-23T07:35:39;95337.00;;;19.01;56.96
3096;BME280;1558;42.700;23.360;2023-04-23T07:38:07;95345.78;;;19.45;58.19
3096;BME280;1558;42.700;23.360;2023-04-23T07:40:35;95350.16;;;18.74;57.83
3096;BME280;1558;42.700;23.360;2023-04-23T07:43:04;95348.72;;;18.40;60.32
3096;BME280;1558;42.700;23.360;2023-04-23T07:45:34;95361.13;;;18.81;58.77
3096;BME280;1558;42.700;23.360;2023-04-23T07:48:02;95343.13;;;16.49;62.10
3096;BME280;1558;42.700;23.360;2023-04-23T07:50:30;95351.78;;;17.14;66.17
3096;BME280;1558;42.700;23.360;2023-04-23T07:52:58;95329.88;;;17.77;61.16
3096;BME280;1558;42.700;23.360;2023-04-23T07:55:26;95350.16;;;18.78;61.44
3096;BME280;1558;42.700;23.360;2023-04-23T07:57:54;95347.38;;;19.57;57.46
3096;BME280;1558;42.700;23.360;2023-04-23T08:00:23;95310.63;;;18.07;58.62
3096;BME280;1558;42.700;23.360;2023-04-23T08:02:53;95349.47;;;18.95;59.47
3096;BME280;1558;42.700;23.360;2023-04-23T08:05:21;95305.56;;;19.71;56.82
3096;BME280;1558;42.700;23.360;2023-04-23T08:07:49;95330.25;;;20.31;54.65
3096;BME280;1558;42.700;23.360;2023-04-23T08:10:17;95332.56;;;19.97;55.12
3096;BME280;1558;42.700;23.360;2023-04-23T08:12:46;95343.50;;;19.69;54.10
3096;BME280;1558;42.700;23.360;2023-04-23T08:15:14;95358.66;;;18.59;57.17
3096;BME280;1558;42.700;23.360;2023-04-23T08:17:42;95340.34;;;18.15;59.21
3096;BME280;1558;42.700;23.360;2023-04-23T08:20:11;95340.19;;;19.21;57.15
3096;BME280;1558;42.700;23.360;2023-04-23T08:22:40;95337.97;;;18.10;58.13
3096;BME280;1558;42.700;23.360;2023-04-23T08:25:08;95341.19;;;17.76;61.13
3096;BME280;1558;42.700;23.360;2023-04-23T08:27:36;95352.53;;;17.81;61.53
3096;BME280;1558;42.700;23.360;2023-04-23T08:30:05;95353.38;;;18.98;58.49
3096;BME280;1558;42.700;23.360;2023-04-23T08:32:35;95340.03;;;18.85;58.11
3096;BME280;1558;42.700;23.360;2023-04-23T08:35:04;95314.56;;;20.13;55.89
3096;BME280;1558;42.700;23.360;2023-04-23T08:37:37;95323.84;;;19.31;54.47
3096;BME280;1558;42.700;23.360;2023-04-23T08:40:09;95332.16;;;19.67;54.81
3096;BME280;1558;42.700;23.360;2023-04-23T08:42:40;95341.78;;;19.18;56.07
3096;BME280;1558;42.700;23.360;2023-04-23T08:45:10;95331.63;;;19.22;55.02
3096;BME280;1558;42.700;23.360;2023-04-23T08:47:39;95314.59;;;18.16;57.60
3096;BME280;1558;42.700;23.360;2023-04-23T08:50:09;95311.97;;;18.96;56.35
3096;BME280;1558;42.700;23.360;2023-04-23T08:52:42;95312.25;;;20.08;54.76
3096;BME280;1558;42.700;23.360;2023-04-23T08:55:14;95305.16;;;20.64;52.48
3096;BME280;1558;42.700;23.360;2023-04-23T08:57:45;95307.50;;;20.69;50.50
3096;BME280;1558;42.700;23.360;2023-04-23T09:00:15;95303.34;;;18.86;54.63
3096;BME280;1558;42.700;23.360;2023-04-23T09:02:44;95286.81;;;19.58;54.35
3096;BME280;1558;42.700;23.360;2023-04-23T09:05:13;95298.16;;;19.92;52.74
3096;BME280;1558;42.700;23.360;2023-04-23T09:07:43;95300.88;;;19.53;53.58
3096;BME280;1558;42.700;23.360;2023-04-23T09:10:12;95298.16;;;20.17;52.34
3096;BME280;1558;42.700;23.360;2023-04-23T09:12:44;95214.41;;;19.24;52.37
3096;BME280;1558;42.700;23.360;2023-04-23T09:15:14;95282.00;;;19.27;53.37
3096;BME280;1558;42.700;23.360;2023-04-23T09:17:43;95291.91;;;19.99;53.34
3096;BME280;1558;42.700;23.360;2023-04-23T09:20:13;95292.03;;;21.21;50.10
3096;BME280;1558;42.700;23.360;2023-04-23T09:22:44;95299.44;;;22.00;48.76
3096;BME280;1558;42.700;23.360;2023-04-23T09:25:15;95304.09;;;21.41;47.92
3096;BME280;1558;42.700;23.360;2023-04-23T09:27:44;95301.78;;;21.32;48.12
3096;BME280;1558;42.700;23.360;2023-04-23T09:30:13;95297.41;;;22.52;46.33
3096;BME280;1558;42.700;23.360;2023-04-23T09:32:42;95293.69;;;22.72;44.93
3096;BME280;1558;42.700;23.360;2023-04-23T09:35:13;95278.47;;;21.65;45.60
3096;BME280;1558;42.700;23.360;2023-04-23T09:37:43;95289.63;;;21.37;46.07
3096;BME280;1558;42.700;23.360;2023-04-23T09:40:15;95286.03;;;21.50;45.35
3096;BME280;1558;42.700;23.360;2023-04-23T09:42:46;95254.03;;;21.19;46.91
3096;BME280;1558;42.700;23.360;2023-04-23T09:45:16;95277.38;;;22.07;46.40
3096;BME280;1558;42.700;23.360;2023-04-23T09:47:48;95269.72;;;21.19;45.96
3096;BME280;1558;42.700;23.360;2023-04-23T09:50:17;95267.81;;;21.74;45.95
3096;BME280;1558;42.700;23.360;2023-04-23T09:52:53;95272.66;;;22.52;43.95
3096;BME280;1558;42.700;23.360;2023-04-23T09:55:27;95257.31;;;22.13;43.36
3096;BME280;1558;42.700;23.360;2023-04-23T09:57:57;95235.59;;;22.30;42.88
3096;BME280;1558;42.700;23.360;2023-04-23T10:00:25;95253.91;;;22.40;43.33
3096;BME280;1558;42.700;23.360;2023-04-23T10:02:58;95249.69;;;22.32;42.13
3096;BME280;1558;42.700;23.360;2023-04-23T10:05:27;95247.44;;;21.68;43.88
3096;BME280;1558;42.700;23.360;2023-04-23T10:08:17;95242.97;;;21.95;42.58
3096;BME280;1558;42.700;23.360;2023-04-23T10:10:46;95246.00;;;22.45;42.01
3096;BME280;1558;42.700;23.360;2023-04-23T10:13:17;95245.72;;;22.77;41.34
3096;BME280;1558;42.700;23.360;2023-04-23T10:15:47;95241.97;;;22.57;39.80
3096;BME280;1558;42.700;23.360;2023-04-23T10:18:15;95234.66;;;22.80;40.66
3096;BME280;1558;42.700;23.360;2023-04-23T10:20:43;95236.66;;;22.39;39.71
3096;BME280;1558;42.700;23.360;2023-04-23T10:23:13;95246.00;;;22.49;40.61
3096;BME280;1558;42.700;23.360;2023-04-23T10:25:44;95231.97;;;22.36;38.19
3096;BME280;1558;42.700;23.360;2023-04-23T10:28:13;95230.22;;;22.53;39.07
3096;BME280;1558;42.700;23.360;2023-04-23T10:30:43;95226.56;;;22.25;37.03
3096;BME280;1558;42.700;23.360;2023-04-23T10:33:12;95209.19;;;22.36;37.81
3096;BME280;1558;42.700;23.360;2023-04-23T10:35:55;95199.47;;;22.65;37.43
3096;BME280;1558;42.700;23.360;2023-04-23T10:38:24;95205.22;;;23.34;36.19
3096;BME280;1558;42.700;23.360;2023-04-23T10:40:56;95176.63;;;23.55;35.75
3096;BME280;1558;42.700;23.360;2023-04-23T10:43:25;95196.25;;;24.07;35.61
3096;BME280;1558;42.700;23.360;2023-04-23T10:45:54;95200.22;;;24.68;33.20
3096;BME280;1558;42.700;23.360;2023-04-23T10:48:22;95199.53;;;24.64;33.01
3096;BME280;1558;42.700;23.360;2023-04-23T10:50:56;95161.25;;;24.66;33.67
3096;BME280;1558;42.700;23.360;2023-04-23T10:53:45;95195.78;;;23.62;33.28
3096;BME280;1558;42.700;23.360;2023-04-23T10:56:14;95182.41;;;23.07;32.91
3096;BME280;1558;42.700;23.360;2023-04-23T10:58:50;95178.72;;;23.47;32.49
3096;BME280;1558;42.700;23.360;2023-04-23T11:01:18;95189.03;;;23.67;33.38
3096;BME280;1558;42.700;23.360;2023-04-23T11:03:47;95177.03;;;23.53;33.70
3096;BME280;1558;42.700;23.360;2023-04-23T11:09:29;95164.84;;;24.01;33.76
3096;BME280;1558;42.700;23.360;2023-04-23T11:11:59;95155.84;;;23.97;31.88
3096;BME280;1558;42.700;23.360;2023-04-23T11:14:50;95163.53;;;24.09;33.11
3096;BME280;1558;42.700;23.360;2023-04-23T11:20:30;95155.44;;;23.75;34.11
3096;BME280;1558;42.700;23.360;2023-04-23T11:22:58;95153.78;;;23.28;33.57
3096;BME280;1558;42.700;23.360;2023-04-23T11:25:27;95149.97;;;22.95;33.60
3096;BME280;1558;42.700;23.360;2023-04-23T11:27:57;95137.41;;;23.71;32.63
3096;BME280;1558;42.700;23.360;2023-04-23T11:30:27;95141.34;;;24.16;30.97
3096;BME280;1558;42.700;23.360;2023-04-23T11:32:56;95144.00;;;24.62;30.98
3096;BME280;1558;42.700;23.360;2023-04-23T11:35:26;95140.41;;;23.30;32.44
3096;BME280;1558;42.700;23.360;2023-04-23T11:37:56;95093.94;;;23.35;33.03
3096;BME280;1558;42.700;23.360;2023-04-23T11:40:24;95136.91;;;23.99;32.94
3096;BME280;1558;42.700;23.360;2023-04-23T11:42:58;95138.06;;;23.78;33.00
3096;BME280;1558;42.700;23.360;2023-04-23T11:45:28;95106.84;;;24.08;32.59
3096;BME280;1558;42.700;23.360;2023-04-23T11:47:57;95119.47;;;24.05;32.79
3096;BME280;1558;42.700;23.360;2023-04-23T11:50:28;95126.09;;;23.65;33.39
3096;BME280;1558;42.700;23.360;2023-04-23T11:53:03;95119.34;;;24.71;31.70
3096;BME280;1558;42.700;23.360;2023-04-23T11:55:32;94999.28;;;22.79;32.30
3096;BME280;1558;42.700;23.360;2023-04-23T11:58:01;95120.59;;;23.65;32.76
3096;BME280;1558;42.700;23.360;2023-04-23T12:00:29;95114.44;;;23.77;31.51
3096;BME280;1558;42.700;23.360;2023-04-23T12:02:59;95115.34;;;24.17;31.55
3096;BME280;1558;42.700;23.360;2023-04-23T12:05:29;95086.88;;;25.15;30.20
3096;BME280;1558;42.700;23.360;2023-04-23T12:08:08;95114.84;;;23.99;29.97
3096;BME280;1558;42.700;23.360;2023-04-23T12:10:44;95102.16;;;23.12;31.20
3096;BME280;1558;42.700;23.360;2023-04-23T12:13:15;95107.88;;;22.98;31.54
3096;BME280;1558;42.700;23.360;2023-04-23T12:15:47;95060.75;;;23.19;31.53
3096;BME280;1558;42.700;23.360;2023-04-23T12:18:17;95110.31;;;24.12;31.18
3096;BME280;1558;42.700;23.360;2023-04-23T12:20:45;95097.03;;;24.27;30.87
3096;BME280;1558;42.700;23.360;2023-04-23T12:23:13;95104.97;;;24.01;30.43
3096;BME280;1558;42.700;23.360;2023-04-23T12:25:41;95058.47;;;22.31;31.62
3096;BME280;1558;42.700;23.360;2023-04-23T12:28:09;95109.41;;;21.64;33.13
3096;BME280;1558;42.700;23.360;2023-04-23T12:30:43;95106.09;;;20.80;33.86
3096;BME280;1558;42.700;23.360;2023-04-23T12:33:11;95096.97;;;21.56;33.75
3096;BME280;1558;42.700;23.360;2023-04-23T12:35:41;95095.41;;;21.92;32.97
3096;BME280;1558;42.700;23.360;2023-04-23T12:38:20;95089.81;;;21.62;32.64
3096;BME280;1558;42.700;23.360;2023-04-23T12:40:49;95090.66;;;20.46;33.52
3096;BME280;1558;42.700;23.360;2023-04-23T12:43:17;95090.41;;;20.05;34.20
3096;BME280;1558;42.700;23.360;2023-04-23T12:45:47;95080.66;;;20.00;34.52
3096;BME280;1558;42.700;23.360;2023-04-23T12:48:18;95066.22;;;19.86;34.78
3096;BME280;1558;42.700;23.360;2023-04-23T12:50:47;95073.66;;;19.82;35.61
3096;BME280;1558;42.700;23.360;2023-04-23T12:53:17;95057.63;;;19.84;34.84
3096;BME280;1558;42.700;23.360;2023-04-23T12:55:47;95075.25;;;19.76;35.14
3096;BME280;1558;42.700;23.360;2023-04-23T12:58:16;95074.75;;;20.05;35.17
3096;BME280;1558;42.700;23.360;2023-04-23T13:00:44;95071.97;;;20.16;34.78
3096;BME280;1558;42.700;23.360;2023-04-23T13:03:14;95076.69;;;20.12;34.84
3096;BME280;1558;42.700;23.360;2023-04-23T13:05:45;95052.94;;;19.81;34.26
3096;BME280;1558;42.700;23.360;2023-04-23T13:08:13;95078.38;;;19.71;34.61
3096;BME280;1558;42.700;23.360;2023-04-23T13:10:41;95067.88;;;19.58;34.31
3096;BME280;1558;42.700;23.360;2023-04-23T13:13:10;95067.88;;;19.30;34.49
3096;BME280;1558;42.700;23.360;2023-04-23T13:15:38;95069.81;;;19.54;35.20
3096;BME280;1558;42.700;23.360;2023-04-23T13:18:06;95063.38;;;20.17;35.04
3096;BME280;1558;42.700;23.360;2023-04-23T13:20:36;95066.03;;;20.39;34.58
3096;BME280;1558;42.700;23.360;2023-04-23T13:23:04;95077.19;;;20.72;33.93
3096;BME280;1558;42.700;23.360;2023-04-23T13:25:34;95056.19;;;20.48;32.87
3096;BME280;1558;42.700;23.360;2023-04-23T13:28:02;95058.53;;;20.50;33.92